sensor_id;sensor_type;location;lat;lon;timestamp;pressure;altitude;pressure_sealevel;temperature;humidity
1726;BME280;41776;48.260;8.928;2023-08-01T00:00:03;51957.25;;;-145.69;52.86
1726;BME280;41776;48.260;8.928;2023-08-01T00:02:32;51965.16;;;-145.69;53.15
1726;BME280;41776;48.260;8.928;2023-08-01T00:04:59;51959.22;;;-145.69;52.64
1726;BME280;41776;48.260;8.928;2023-08-01T00:07:26;51963.19;;;-145.69;52.45
1726;BME280;41776;48.260;8.928;2023-08-01T00:09:54;51949.31;;;-145.69;52.44
1726;BME280;41776;48.260;8.928;2023-08-01T00:12:21;51990.91;;;-145.69;52.03
1726;BME280;41776;48.260;8.928;2023-08-01T00:14:48;51949.31;;;-145.69;52.02
1726;BME280;41776;48.260;8.928;2023-08-01T00:17:14;51963.19;;;-145.69;51.37
1726;BME280;41776;48.260;8.928;2023-08-01T00:19:41;51969.13;;;-145.69;49.83
1726;BME280;41776;48.260;8.928;2023-08-01T00:22:07;51921.59;;;-145.69;49.58
1726;BME280;41776;48.260;8.928;2023-08-01T00:24:35;51917.63;;;-145.69;49.39
1726;BME280;41776;48.260;8.928;2023-08-01T00:27:03;51953.28;;;-145.69;47.96
1726;BME280;41776;48.260;8.928;2023-08-01T00:29:30;51949.31;;;-145.69;47.40
1726;BME280;41776;48.260;8.928;2023-08-01T00:31:56;51945.34;;;-145.69;47.04
1726;BME280;41776;48.260;8.928;2023-08-01T00:34:23;51957.25;;;-145.69;47.53
1726;BME280;41776;48.260;8.928;2023-08-01T00:36:49;51953.28;;;-145.69;46.86
1726;BME280;41776;48.260;8.928;2023-08-01T00:39:16;51909.72;;;-145.69;46.82
1726;BME280;41776;48.260;8.928;2023-08-01T00:41:42;51927.53;;;-145.69;46.51
1726;BME280;41776;48.260;8.928;2023-08-01T00:44:10;51937.44;;;-145.69;46.54
1726;BME280;41776;48.260;8.928;2023-08-01T00:46:37;51931.50;;;-145.69;46.32
1726;BME280;41776;48.260;8.928;2023-08-01T00:49:03;51941.41;;;-145.69;45.90
1726;BME280;41776;48.260;8.928;2023-08-01T00:51:31;51933.47;;;-145.69;46.25
1726;BME280;41776;48.260;8.928;2023-08-01T00:53:59;51911.69;;;-145.69;46.64
1726;BME280;41776;48.260;8.928;2023-08-01T00:56:26;51933.47;;;-145.69;46.41
1726;BME280;41776;48.260;8.928;2023-08-01T00:58:53;51933.47;;;-145.69;47.00
1726;BME280;41776;48.260;8.928;2023-08-01T01:01:20;51925.56;;;-145.69;46.40
1726;BME280;41776;48.260;8.928;2023-08-01T01:03:47;51953.28;;;-145.69;46.59
1726;BME280;41776;48.260;8.928;2023-08-01T01:06:20;51889.91;;;-145.69;46.62
1726;BME280;41776;48.260;8.928;2023-08-01T01:08:48;51937.44;;;-145.69;46.38
1726;BME280;41776;48.260;8.928;2023-08-01T01:11:15;51901.78;;;-145.69;46.21
1726;BME280;41776;48.260;8.928;2023-08-01T01:13:42;51937.44;;;-145.69;46.77
1726;BME280;41776;48.260;8.928;2023-08-01T01:16:08;51907.72;;;-145.69;46.46
1726;BME280;41776;48.260;8.928;2023-08-01T01:18:36;51929.50;;;-145.69;46.04
1726;BME280;41776;48.260;8.928;2023-08-01T01:21:04;51953.28;;;-145.69;45.91
1726;BME280;41776;48.260;8.928;2023-08-01T01:23:32;51931.50;;;-145.69;46.08
1726;BME280;41776;48.260;8.928;2023-08-01T01:26:00;51929.50;;;-145.69;49.05
1726;BME280;41776;48.260;8.928;2023-08-01T01:28:28;51913.69;;;-145.69;49.72
1726;BME280;41776;48.260;8.928;2023-08-01T01:30:55;51947.34;;;-145.69;49.83
1726;BME280;41776;48.260;8.928;2023-08-01T01:33:23;51925.56;;;-145.69;53.22
1726;BME280;41776;48.260;8.928;2023-08-01T01:35:49;51969.13;;;-145.69;54.31
1726;BME280;41776;48.260;8.928;2023-08-01T01:38:17;51939.41;;;-145.69;55.99
1726;BME280;41776;48.260;8.928;2023-08-01T01:40:44;51967.13;;;-145.69;57.42
1726;BME280;41776;48.260;8.928;2023-08-01T01:43:10;51988.91;;;-145.69;58.96
1726;BME280;41776;48.260;8.928;2023-08-01T01:45:36;51981.00;;;-145.69;58.68
1726;BME280;41776;48.260;8.928;2023-08-01T01:48:03;52000.81;;;-145.69;58.71
1726;BME280;41776;48.260;8.928;2023-08-01T01:50:30;51971.09;;;-145.69;59.64
1726;BME280;41776;48.260;8.928;2023-08-01T01:52:56;51969.13;;;-145.69;59.26
1726;BME280;41776;48.260;8.928;2023-08-01T01:55:24;51961.19;;;-145.69;59.04
1726;BME280;41776;48.260;8.928;2023-08-01T01:57:50;51986.94;;;-145.69;59.81
1726;BME280;41776;48.260;8.928;2023-08-01T02:00:17;51969.13;;;-145.69;58.68
1726;BME280;41776;48.260;8.928;2023-08-01T02:02:43;51953.28;;;-145.69;58.98
1726;BME280;41776;48.260;8.928;2023-08-01T02:05:10;51981.00;;;-145.69;58.05
1726;BME280;41776;48.260;8.928;2023-08-01T02:07:36;51986.94;;;-145.69;57.94
1726;BME280;41776;48.260;8.928;2023-08-01T02:10:03;51925.56;;;-145.69;58.60
1726;BME280;41776;48.260;8.928;2023-08-01T02:12:31;51965.16;;;-145.69;58.12
1726;BME280;41776;48.260;8.928;2023-08-01T02:15:00;51953.28;;;-145.69;58.12
1726;BME280;41776;48.260;8.928;2023-08-01T02:17:26;51933.47;;;-145.69;58.02
1726;BME280;41776;48.260;8.928;2023-08-01T02:19:52;51959.22;;;-145.69;57.75
1726;BME280;41776;48.260;8.928;2023-08-01T02:22:19;51951.28;;;-145.69;56.91
1726;BME280;41776;48.260;8.928;2023-08-01T02:24:46;51943.38;;;-145.69;56.52
1726;BME280;41776;48.260;8.928;2023-08-01T02:27:12;51961.19;;;-145.69;56.42
1726;BME280;41776;48.260;8.928;2023-08-01T02:29:40;51965.16;;;-145.69;56.17
1726;BME280;41776;48.260;8.928;2023-08-01T02:32:07;51963.19;;;-145.69;56.18
1726;BME280;41776;48.260;8.928;2023-08-01T02:34:33;51965.16;;;-145.69;55.98
1726;BME280;41776;48.260;8.928;2023-08-01T02:37:03;51961.19;;;-145.69;54.32
1726;BME280;41776;48.260;8.928;2023-08-01T02:39:32;51939.41;;;-145.69;53.54
1726;BME280;41776;48.260;8.928;2023-08-01T02:42:01;51957.25;;;-145.69;53.58
1726;BME280;41776;48.260;8.928;2023-08-01T02:44:28;51979.03;;;-145.69;53.00
1726;BME280;41776;48.260;8.928;2023-08-01T02:46:56;51973.06;;;-145.69;53.06
1726;BME280;41776;48.260;8.928;2023-08-01T02:49:23;51943.38;;;-145.69;52.71
1726;BME280;41776;48.260;8.928;2023-08-01T02:51:48;51965.16;;;-145.69;52.61
1726;BME280;41776;48.260;8.928;2023-08-01T02:54:15;51953.28;;;-145.69;51.73
1726;BME280;41776;48.260;8.928;2023-08-01T02:56:52;51955.25;;;-145.69;52.42
1726;BME280;41776;48.260;8.928;2023-08-01T02:59:21;51975.06;;;-145.69;51.25
1726;BME280;41776;48.260;8.928;2023-08-01T03:01:47;51951.28;;;-145.69;52.21
1726;BME280;41776;48.260;8.928;2023-08-01T03:04:18;51919.63;;;-145.69;51.43
1726;BME280;41776;48.260;8.928;2023-08-01T03:06:44;51973.06;;;-145.69;50.04
1726;BME280;41776;48.260;8.928;2023-08-01T03:09:11;51945.34;;;-145.69;50.85
1726;BME280;41776;48.260;8.928;2023-08-01T03:11:37;51955.25;;;-145.69;51.73
1726;BME280;41776;48.260;8.928;2023-08-01T03:14:04;51955.25;;;-145.69;50.17
1726;BME280;41776;48.260;8.928;2023-08-01T03:16:31;51937.44;;;-145.69;50.54
1726;BME280;41776;48.260;8.928;2023-08-01T03:18:57;51957.25;;;-145.69;49.84
1726;BME280;41776;48.260;8.928;2023-08-01T03:21:28;51969.13;;;-145.69;49.21
1726;BME280;41776;48.260;8.928;2023-08-01T03:23:54;51941.41;;;-145.69;49.61
1726;BME280;41776;48.260;8.928;2023-08-01T03:26:22;51953.28;;;-145.69;48.93
1726;BME280;41776;48.260;8.928;2023-08-01T03:28:48;51929.50;;;-145.69;49.16
1726;BME280;41776;48.260;8.928;2023-08-01T03:31:15;51937.44;;;-145.69;49.78
1726;BME280;41776;48.260;8.928;2023-08-01T03:33:41;51961.19;;;-145.69;50.39
1726;BME280;41776;48.260;8.928;2023-08-01T03:36:08;51953.28;;;-145.69;50.49
1726;BME280;41776;48.260;8.928;2023-08-01T03:38:36;51935.47;;;-145.69;49.53
1726;BME280;41776;48.260;8.928;2023-08-01T03:41:03;51947.34;;;-145.69;49.99
1726;BME280;41776;48.260;8.928;2023-08-01T03:43:30;51953.28;;;-145.69;49.33
1726;BME280;41776;48.260;8.928;2023-08-01T03:45:56;51965.16;;;-145.69;49.61
1726;BME280;41776;48.260;8.928;2023-08-01T03:48:23;51981.00;;;-145.69;48.95
1726;BME280;41776;48.260;8.928;2023-08-01T03:50:49;51975.06;;;-145.69;48.67
1726;BME280;41776;48.260;8.928;2023-08-01T03:53:16;51955.25;;;-145.69;48.53
1726;BME280;41776;48.260;8.928;2023-08-01T03:55:46;51919.63;;;-145.69;47.98
1726;BME280;41776;48.260;8.928;2023-08-01T03:58:13;51933.47;;;-145.69;48.07
1726;BME280;41776;48.260;8.928;2023-08-01T04:00:39;51953.28;;;-145.69;48.39
1726;BME280;41776;48.260;8.928;2023-08-01T04:03:06;51933.47;;;-145.69;48.46
1726;BME280;41776;48.260;8.928;2023-08-01T04:05:33;51957.25;;;-145.69;48.63
1726;BME280;41776;48.260;8.928;2023-08-01T04:07:59;51939.41;;;-145.69;48.63
1726;BME280;41776;48.260;8.928;2023-08-01T04:10:26;51941.41;;;-145.69;49.68
1726;BME280;41776;48.260;8.928;2023-08-01T04:12:54;51933.47;;;-145.69;49.34
1726;BME280;41776;48.260;8.928;2023-08-01T04:15:20;52000.81;;;-145.69;49.78
1726;BME280;41776;48.260;8.928;2023-08-01T04:17:47;51951.28;;;-145.69;49.93
1726;BME280;41776;48.260;8.928;2023-08-01T04:20:13;51986.94;;;-145.69;50.24
1726;BME280;41776;48.260;8.928;2023-08-01T04:22:40;51945.34;;;-145.69;49.59
1726;BME280;41776;48.260;8.928;2023-08-01T04:25:07;51969.13;;;-145.69;50.11
1726;BME280;41776;48.260;8.928;2023-08-01T04:27:34;51984.97;;;-145.69;50.23
1726;BME280;41776;48.260;8.928;2023-08-01T04:30:02;51939.41;;;-145.69;49.75
1726;BME280;41776;48.260;8.928;2023-08-01T04:32:29;51977.03;;;-145.69;50.06
1726;BME280;41776;48.260;8.928;2023-08-01T04:34:55;51953.28;;;-145.69;50.67
1726;BME280;41776;48.260;8.928;2023-08-01T04:37:22;51965.16;;;-145.69;50.57
1726;BME280;41776;48.260;8.928;2023-08-01T04:39:51;51994.88;;;-145.69;50.32
1726;BME280;41776;48.260;8.928;2023-08-01T04:42:17;51965.16;;;-145.69;50.62
1726;BME280;41776;48.260;8.928;2023-08-01T04:44:43;51977.03;;;-145.69;50.93
1726;BME280;41776;48.260;8.928;2023-08-01T04:47:13;51967.13;;;-145.69;50.92
1726;BME280;41776;48.260;8.928;2023-08-01T04:49:39;51996.84;;;-145.69;52.10
1726;BME280;41776;48.260;8.928;2023-08-01T04:52:07;52008.72;;;-145.69;52.26
1726;BME280;41776;48.260;8.928;2023-08-01T04:54:34;51996.84;;;-145.69;51.49
1726;BME280;41776;48.260;8.928;2023-08-01T04:57:00;51973.06;;;-145.69;52.08
1726;BME280;41776;48.260;8.928;2023-08-01T04:59:26;51969.13;;;-145.69;51.07
1726;BME280;41776;48.260;8.928;2023-08-01T05:01:53;51957.25;;;-145.69;51.39
1726;BME280;41776;48.260;8.928;2023-08-01T05:04:21;51957.25;;;-145.69;51.10
1726;BME280;41776;48.260;8.928;2023-08-01T05:06:47;51957.25;;;-145.69;50.87
1726;BME280;41776;48.260;8.928;2023-08-01T05:09:14;51951.28;;;-145.69;49.83
1726;BME280;41776;48.260;8.928;2023-08-01T05:11:40;51943.38;;;-145.69;50.00
1726;BME280;41776;48.260;8.928;2023-08-01T05:14:07;52000.81;;;-145.69;48.82
1726;BME280;41776;48.260;8.928;2023-08-01T05:16:33;51986.94;;;-145.69;47.07
1726;BME280;41776;48.260;8.928;2023-08-01T05:19:00;51957.25;;;-145.69;47.29
1726;BME280;41776;48.260;8.928;2023-08-01T05:21:28;51961.19;;;-145.69;45.97
1726;BME280;41776;48.260;8.928;2023-08-01T05:23:54;51977.03;;;-145.69;46.79
1726;BME280;41776;48.260;8.928;2023-08-01T05:26:21;51982.97;;;-145.69;46.71
1726;BME280;41776;48.260;8.928;2023-08-01T05:28:47;51955.25;;;-145.69;46.55
1726;BME280;41776;48.260;8.928;2023-08-01T05:31:14;51969.13;;;-145.69;45.97
1726;BME280;41776;48.260;8.928;2023-08-01T05:33:40;52000.81;;;-145.69;46.03
1726;BME280;41776;48.260;8.928;2023-08-01T05:36:07;51957.25;;;-145.69;45.19
1726;BME280;41776;48.260;8.928;2023-08-01T05:38:35;51955.25;;;-145.69;44.14
1726;BME280;41776;48.260;8.928;2023-08-01T05:41:01;51988.91;;;-145.69;45.42
1726;BME280;41776;48.260;8.928;2023-08-01T05:43:28;51986.94;;;-145.69;43.94
1726;BME280;41776;48.260;8.928;2023-08-01T05:45:54;51941.41;;;-145.69;44.35
1726;BME280;41776;48.260;8.928;2023-08-01T05:48:21;51988.91;;;-145.69;43.38
1726;BME280;41776;48.260;8.928;2023-08-01T05:50:47;51951.28;;;-145.69;44.50
1726;BME280;41776;48.260;8.928;2023-08-01T05:53:14;51959.22;;;-145.69;43.13
1726;BME280;41776;48.260;8.928;2023-08-01T05:55:41;51947.34;;;-145.69;42.21
1726;BME280;41776;48.260;8.928;2023-08-01T05:58:08;51915.66;;;-145.69;41.80
1726;BME280;41776;48.260;8.928;2023-08-01T06:00:34;51953.28;;;-145.69;42.13
1726;BME280;41776;48.260;8.928;2023-08-01T06:03:01;51953.28;;;-145.69;41.35
1726;BME280;41776;48.260;8.928;2023-08-01T06:05:27;51947.34;;;-145.69;42.11
1726;BME280;41776;48.260;8.928;2023-08-01T06:07:54;51977.03;;;-145.69;42.08
1726;BME280;41776;48.260;8.928;2023-08-01T06:10:21;51965.16;;;-145.69;42.10
1726;BME280;41776;48.260;8.928;2023-08-01T06:12:49;51963.19;;;-145.69;42.37
1726;BME280;41776;48.260;8.928;2023-08-01T06:15:15;51981.00;;;-145.69;41.59
1726;BME280;41776;48.260;8.928;2023-08-01T06:17:42;51977.03;;;-145.69;41.95
1726;BME280;41776;48.260;8.928;2023-08-01T06:20:10;51953.28;;;-145.69;42.13
1726;BME280;41776;48.260;8.928;2023-08-01T06:22:36;51981.00;;;-145.69;42.78
1726;BME280;41776;48.260;8.928;2023-08-01T06:25:04;51969.13;;;-145.69;41.99
1726;BME280;41776;48.260;8.928;2023-08-01T06:27:30;51951.28;;;-145.69;41.99
1726;BME280;41776;48.260;8.928;2023-08-01T06:29:58;51957.25;;;-145.69;41.36
1726;BME280;41776;48.260;8.928;2023-08-01T06:32:25;51963.19;;;-145.69;42.03
1726;BME280;41776;48.260;8.928;2023-08-01T06:34:51;51935.47;;;-145.69;41.08
1726;BME280;41776;48.260;8.928;2023-08-01T06:37:18;51945.34;;;-145.69;42.27
1726;BME280;41776;48.260;8.928;2023-08-01T06:39:44;51925.56;;;-145.69;41.64
1726;BME280;41776;48.260;8.928;2023-08-01T06:42:11;51951.28;;;-145.69;42.26
1726;BME280;41776;48.260;8.928;2023-08-01T06:44:38;51965.16;;;-145.69;42.62
1726;BME280;41776;48.260;8.928;2023-08-01T06:47:06;51937.44;;;-145.69;42.38
1726;BME280;41776;48.260;8.928;2023-08-01T06:49:32;51933.47;;;-145.69;43.07
1726;BME280;41776;48.260;8.928;2023-08-01T06:51:59;51965.16;;;-145.69;43.66
1726;BME280;41776;48.260;8.928;2023-08-01T06:54:25;51945.34;;;-145.69;44.39
1726;BME280;41776;48.260;8.928;2023-08-01T06:56:52;51965.16;;;-145.69;44.38
1726;BME280;41776;48.260;8.928;2023-08-01T06:59:18;51955.25;;;-145.69;45.06
1726;BME280;41776;48.260;8.928;2023-08-01T07:01:46;51953.28;;;-145.69;45.83
1726;BME280;41776;48.260;8.928;2023-08-01T07:04:14;51951.28;;;-145.69;47.15
1726;BME280;41776;48.260;8.928;2023-08-01T07:06:40;51975.06;;;-145.69;48.92
1726;BME280;41776;48.260;8.928;2023-08-01T07:09:07;51953.28;;;-145.69;48.61
1726;BME280;41776;48.260;8.928;2023-08-01T07:11:33;51986.94;;;-145.69;49.62
1726;BME280;41776;48.260;8.928;2023-08-01T07:14:00;51937.44;;;-145.69;47.43
1726;BME280;41776;48.260;8.928;2023-08-01T07:16:26;51949.31;;;-145.69;47.20
1726;BME280;41776;48.260;8.928;2023-08-01T07:18:54;51925.56;;;-145.69;49.85
1726;BME280;41776;48.260;8.928;2023-08-01T07:21:22;51981.00;;;-145.69;53.39
1726;BME280;41776;48.260;8.928;2023-08-01T07:23:49;51977.03;;;-145.69;53.18
1726;BME280;41776;48.260;8.928;2023-08-01T07:26:15;51981.00;;;-145.69;53.25
1726;BME280;41776;48.260;8.928;2023-08-01T07:28:42;51986.94;;;-145.69;52.75
1726;BME280;41776;48.260;8.928;2023-08-01T07:31:08;51949.31;;;-145.69;53.92
1726;BME280;41776;48.260;8.928;2023-08-01T07:33:35;51992.88;;;-145.69;55.12
1726;BME280;41776;48.260;8.928;2023-08-01T07:36:02;52006.75;;;-145.69;56.77
1726;BME280;41776;48.260;8.928;2023-08-01T07:38:30;51959.22;;;-145.69;54.64
1726;BME280;41776;48.260;8.928;2023-08-01T07:41:02;51990.91;;;-145.69;53.41
1726;BME280;41776;48.260;8.928;2023-08-01T07:43:28;51979.03;;;-145.69;51.88
1726;BME280;41776;48.260;8.928;2023-08-01T07:45:56;51988.91;;;-145.69;54.26
1726;BME280;41776;48.260;8.928;2023-08-01T07:48:22;51957.25;;;-145.69;51.81
1726;BME280;41776;48.260;8.928;2023-08-01T07:50:49;51953.28;;;-145.69;50.19
1726;BME280;41776;48.260;8.928;2023-08-01T07:53:15;51951.28;;;-145.69;50.11
1726;BME280;41776;48.260;8.928;2023-08-01T07:55:43;51973.06;;;-145.69;51.86
1726;BME280;41776;48.260;8.928;2023-08-01T07:58:10;51973.06;;;-145.69;51.82
1726;BME280;41776;48.260;8.928;2023-08-01T08:00:36;51961.19;;;-145.69;51.88
1726;BME280;41776;48.260;8.928;2023-08-01T08:03:04;51963.19;;;-145.69;51.20
1726;BME280;41776;48.260;8.928;2023-08-01T08:05:31;51982.97;;;-145.69;49.87
1726;BME280;41776;48.260;8.928;2023-08-01T08:07:57;51951.28;;;-145.69;51.10
1726;BME280;41776;48.260;8.928;2023-08-01T08:10:24;51971.09;;;-145.69;52.04
1726;BME280;41776;48.260;8.928;2023-08-01T08:12:52;51949.31;;;-145.69;53.31
1726;BME280;41776;48.260;8.928;2023-08-01T08:15:19;51955.25;;;-145.69;54.94
1726;BME280;41776;48.260;8.928;2023-08-01T08:17:46;51992.88;;;-145.69;57.78
1726;BME280;41776;48.260;8.928;2023-08-01T08:20:12;51969.13;;;-145.69;58.29
1726;BME280;41776;48.260;8.928;2023-08-01T08:22:39;52008.72;;;-145.69;59.29
1726;BME280;41776;48.260;8.928;2023-08-01T08:25:06;51973.06;;;-145.69;59.69
1726;BME280;41776;48.260;8.928;2023-08-01T08:27:32;51982.97;;;-145.69;61.21
1726;BME280;41776;48.260;8.928;2023-08-01T08:30:00;51973.06;;;-145.69;61.80
1726;BME280;41776;48.260;8.928;2023-08-01T08:32:27;51998.81;;;-145.69;62.87
1726;BME280;41776;48.260;8.928;2023-08-01T08:34:53;51981.00;;;-145.69;63.64
1726;BME280;41776;48.260;8.928;2023-08-01T08:37:20;51981.00;;;-145.69;64.04
1726;BME280;41776;48.260;8.928;2023-08-01T08:39:46;52020.59;;;-145.69;66.08
1726;BME280;41776;48.260;8.928;2023-08-01T08:42:13;51984.97;;;-145.69;65.36
1726;BME280;41776;48.260;8.928;2023-08-01T08:44:42;52008.72;;;-145.69;64.54
1726;BME280;41776;48.260;8.928;2023-08-01T08:47:11;52008.72;;;-145.69;66.63
1726;BME280;41776;48.260;8.928;2023-08-01T08:49:39;51979.03;;;-145.69;67.03
1726;BME280;41776;48.260;8.928;2023-08-01T08:52:07;52020.59;;;-145.69;66.85
1726;BME280;41776;48.260;8.928;2023-08-01T08:54:35;51992.88;;;-145.69;66.33
1726;BME280;41776;48.260;8.928;2023-08-01T08:57:04;51996.84;;;-145.69;66.40
1726;BME280;41776;48.260;8.928;2023-08-01T08:59:32;51992.88;;;-145.69;67.19
1726;BME280;41776;48.260;8.928;2023-08-01T09:01:59;52004.75;;;-145.69;67.17
1726;BME280;41776;48.260;8.928;2023-08-01T09:04:28;52002.78;;;-145.69;66.49
1726;BME280;41776;48.260;8.928;2023-08-01T09:06:57;51973.06;;;-145.69;66.55
1726;BME280;41776;48.260;8.928;2023-08-01T09:09:24;52000.81;;;-145.69;65.78
1726;BME280;41776;48.260;8.928;2023-08-01T09:11:53;51984.97;;;-145.69;64.54
1726;BME280;41776;48.260;8.928;2023-08-01T09:14:21;51984.97;;;-145.69;63.00
1726;BME280;41776;48.260;8.928;2023-08-01T09:16:48;51961.19;;;-145.69;63.12
1726;BME280;41776;48.260;8.928;2023-08-01T09:19:16;51990.91;;;-145.69;61.31
1726;BME280;41776;48.260;8.928;2023-08-01T09:21:44;51984.97;;;-145.69;61.48
1726;BME280;41776;48.260;8.928;2023-08-01T09:24:12;51967.13;;;-145.69;60.45
1726;BME280;41776;48.260;8.928;2023-08-01T09:26:40;51969.13;;;-145.69;60.11
1726;BME280;41776;48.260;8.928;2023-08-01T09:29:07;51945.34;;;-145.69;60.33
1726;BME280;41776;48.260;8.928;2023-08-01T09:31:36;51941.41;;;-145.69;60.48
1726;BME280;41776;48.260;8.928;2023-08-01T09:34:04;52002.78;;;-145.69;60.34
1726;BME280;41776;48.260;8.928;2023-08-01T09:36:31;51977.03;;;-145.69;60.46
1726;BME280;41776;48.260;8.928;2023-08-01T09:39:00;51949.31;;;-145.69;60.72
1726;BME280;41776;48.260;8.928;2023-08-01T09:41:28;51975.06;;;-145.69;61.63
1726;BME280;41776;48.260;8.928;2023-08-01T09:43:55;51981.00;;;-145.69;61.50
1726;BME280;41776;48.260;8.928;2023-08-01T09:46:22;52004.75;;;-145.69;62.49
1726;BME280;41776;48.260;8.928;2023-08-01T09:48:49;51975.06;;;-145.69;62.57
1726;BME280;41776;48.260;8.928;2023-08-01T09:51:16;51990.91;;;-145.69;62.62
1726;BME280;41776;48.260;8.928;2023-08-01T09:53:48;51961.19;;;-145.69;62.51
1726;BME280;41776;48.260;8.928;2023-08-01T09:56:18;51961.19;;;-145.69;62.74
1726;BME280;41776;48.260;8.928;2023-08-01T09:58:46;51992.88;;;-145.69;63.19
1726;BME280;41776;48.260;8.928;2023-08-01T10:01:14;52000.81;;;-145.69;63.81
1726;BME280;41776;48.260;8.928;2023-08-01T10:03:44;52000.81;;;-145.69;63.69
1726;BME280;41776;48.260;8.928;2023-08-01T10:06:13;52016.66;;;-145.69;65.23
1726;BME280;41776;48.260;8.928;2023-08-01T10:08:41;51979.03;;;-145.69;65.98
1726;BME280;41776;48.260;8.928;2023-08-01T10:11:08;52014.66;;;-145.69;65.05
1726;BME280;41776;48.260;8.928;2023-08-01T10:13:36;51990.91;;;-145.69;63.75
1726;BME280;41776;48.260;8.928;2023-08-01T10:16:03;52004.75;;;-145.69;63.30
1726;BME280;41776;48.260;8.928;2023-08-01T10:18:32;51998.81;;;-145.69;62.90
1726;BME280;41776;48.260;8.928;2023-08-01T10:21:00;51941.41;;;-145.69;61.54
1726;BME280;41776;48.260;8.928;2023-08-01T10:23:27;51949.31;;;-145.69;58.88
1726;BME280;41776;48.260;8.928;2023-08-01T10:25:54;51973.06;;;-145.69;57.97
1726;BME280;41776;48.260;8.928;2023-08-01T10:28:30;51981.00;;;-145.69;56.55
1726;BME280;41776;48.260;8.928;2023-08-01T10:31:08;51969.13;;;-145.69;56.70
1726;BME280;41776;48.260;8.928;2023-08-01T10:33:34;51977.03;;;-145.69;61.19
1726;BME280;41776;48.260;8.928;2023-08-01T10:36:12;51996.84;;;-145.69;63.28
1726;BME280;41776;48.260;8.928;2023-08-01T10:38:45;51975.06;;;-145.69;65.98
1726;BME280;41776;48.260;8.928;2023-08-01T10:41:18;51967.13;;;-145.69;66.75
1726;BME280;41776;48.260;8.928;2023-08-01T10:43:45;51981.00;;;-145.69;69.45
1726;BME280;41776;48.260;8.928;2023-08-01T10:46:13;51984.97;;;-145.69;69.48
1726;BME280;41776;48.260;8.928;2023-08-01T10:48:48;52008.72;;;-145.69;69.44
1726;BME280;41776;48.260;8.928;2023-08-01T10:51:15;51979.03;;;-145.69;70.39
1726;BME280;41776;48.260;8.928;2023-08-01T10:53:41;51998.81;;;-145.69;70.33
1726;BME280;41776;48.260;8.928;2023-08-01T10:56:17;51996.84;;;-145.69;68.92
1726;BME280;41776;48.260;8.928;2023-08-01T10:58:44;51953.28;;;-145.69;69.62
1726;BME280;41776;48.260;8.928;2023-08-01T11:01:12;51971.09;;;-145.69;68.87
1726;BME280;41776;48.260;8.928;2023-08-01T11:03:39;51957.25;;;-145.69;64.50
1726;BME280;41776;48.260;8.928;2023-08-01T11:06:09;51941.41;;;-145.69;63.89
1726;BME280;41776;48.260;8.928;2023-08-01T11:08:37;51961.19;;;-145.69;60.76
1726;BME280;41776;48.260;8.928;2023-08-01T11:11:05;51955.25;;;-145.69;60.42
1726;BME280;41776;48.260;8.928;2023-08-01T11:13:32;51937.44;;;-145.69;61.02
1726;BME280;41776;48.260;8.928;2023-08-01T11:16:01;51975.06;;;-145.69;63.00
1726;BME280;41776;48.260;8.928;2023-08-01T11:18:39;51967.13;;;-145.69;66.23
1726;BME280;41776;48.260;8.928;2023-08-01T11:21:08;51961.19;;;-145.69;68.60
1726;BME280;41776;48.260;8.928;2023-08-01T11:23:36;51949.31;;;-145.69;66.51
1726;BME280;41776;48.260;8.928;2023-08-01T11:26:06;51965.16;;;-145.69;65.56
1726;BME280;41776;48.260;8.928;2023-08-01T11:28:34;51957.25;;;-145.69;63.34
1726;BME280;41776;48.260;8.928;2023-08-01T11:31:01;51935.47;;;-145.69;63.54
1726;BME280;41776;48.260;8.928;2023-08-01T11:33:27;51931.50;;;-145.69;62.28
1726;BME280;41776;48.260;8.928;2023-08-01T11:35:59;51921.59;;;-145.69;57.32
1726;BME280;41776;48.260;8.928;2023-08-01T11:38:27;51927.53;;;-145.69;59.13
1726;BME280;41776;48.260;8.928;2023-08-01T11:40:57;51955.25;;;-145.69;58.80
1726;BME280;41776;48.260;8.928;2023-08-01T11:43:25;51947.34;;;-145.69;59.94
1726;BME280;41776;48.260;8.928;2023-08-01T11:45:53;51925.56;;;-145.69;60.99
1726;BME280;41776;48.260;8.928;2023-08-01T11:48:20;51957.25;;;-145.69;61.25
1726;BME280;41776;48.260;8.928;2023-08-01T11:50:48;51927.53;;;-145.69;61.00
1726;BME280;41776;48.260;8.928;2023-08-01T11:53:22;51925.56;;;-145.69;59.78
1726;BME280;41776;48.260;8.928;2023-08-01T11:55:52;51939.41;;;-145.69;62.05
1726;BME280;41776;48.260;8.928;2023-08-01T11:58:30;51937.44;;;-145.69;60.47
1726;BME280;41776;48.260;8.928;2023-08-01T12:01:06;51921.59;;;-145.69;58.62
1726;BME280;41776;48.260;8.928;2023-08-01T12:03:42;51919.63;;;-145.69;56.67
1726;BME280;41776;48.260;8.928;2023-08-01T12:06:09;51931.50;;;-145.69;57.02
1726;BME280;41776;48.260;8.928;2023-08-01T12:08:38;51919.63;;;-145.69;56.49
1726;BME280;41776;48.260;8.928;2023-08-01T12:11:05;51901.78;;;-145.69;54.70
1726;BME280;41776;48.260;8.928;2023-08-01T12:13:31;51883.97;;;-145.69;51.91
1726;BME280;41776;48.260;8.928;2023-08-01T12:16:00;51885.94;;;-145.69;49.05
1726;BME280;41776;48.260;8.928;2023-08-01T12:18:29;51842.38;;;-145.69;47.05
1726;BME280;41776;48.260;8.928;2023-08-01T12:20:56;51917.63;;;-145.69;47.56
1726;BME280;41776;48.260;8.928;2023-08-01T12:23:22;51874.06;;;-145.69;45.75
1726;BME280;41776;48.260;8.928;2023-08-01T12:25:50;51909.72;;;-145.69;45.32
1726;BME280;41776;48.260;8.928;2023-08-01T12:28:18;51943.38;;;-145.69;47.70
1726;BME280;41776;48.260;8.928;2023-08-01T12:30:50;51915.66;;;-145.69;46.56
1726;BME280;41776;48.260;8.928;2023-08-01T12:33:17;51937.44;;;-145.69;48.06
1726;BME280;41776;48.260;8.928;2023-08-01T12:35:43;51919.63;;;-145.69;49.64
1726;BME280;41776;48.260;8.928;2023-08-01T12:38:10;51903.78;;;-145.69;49.15
1726;BME280;41776;48.260;8.928;2023-08-01T12:40:36;51905.75;;;-145.69;49.23
1726;BME280;41776;48.260;8.928;2023-08-01T12:43:04;51895.84;;;-145.69;47.12
1726;BME280;41776;48.260;8.928;2023-08-01T12:45:32;51899.81;;;-145.69;48.88
1726;BME280;41776;48.260;8.928;2023-08-01T12:47:59;51903.78;;;-145.69;49.81
1726;BME280;41776;48.260;8.928;2023-08-01T12:50:25;51965.16;;;-145.69;49.62